sensor_id;sensor_type;location;lat;lon;timestamp;P1;durP1;ratioP1;P2;durP2;ratioP2
8466;SDS011;4270;48.148;11.648;2023-02-28T00:00:02;4.43;;;2.83;;
8466;SDS011;4270;48.148;11.648;2023-02-28T00:02:34;4.40;;;2.90;;
8466;SDS011;4270;48.148;11.648;2023-02-28T00:05:00;5.40;;;3.17;;
8466;SDS011;4270;48.148;11.648;2023-02-28T00:07:26;3.80;;;2.90;;
8466;SDS011;4270;48.148;11.648;2023-02-28T00:09:51;5.30;;;3.60;;
8466;SDS011;4270;48.148;11.648;2023-02-28T00:12:16;4.27;;;3.10;;
8466;SDS011;4270;48.148;11.648;2023-02-28T00:14:41;5.47;;;2.90;;
8466;SDS011;4270;48.148;11.648;2023-02-28T00:17:07;4.53;;;2.80;;
8466;SDS011;4270;48.148;11.648;2023-02-28T00:19:32;5.10;;;3.20;;
8466;SDS011;4270;48.148;11.648;2023-02-28T00:21:57;4.03;;;2.70;;
8466;SDS011;4270;48.148;11.648;2023-02-28T00:24:22;3.77;;;3.07;;
8466;SDS011;4270;48.148;11.648;2023-02-28T00:26:47;3.67;;;2.87;;
8466;SDS011;4270;48.148;11.648;2023-02-28T00:29:13;3.00;;;2.30;;
8466;SDS011;4270;48.148;11.648;2023-02-28T00:31:38;4.07;;;3.13;;
8466;SDS011;4270;48.148;11.648;2023-02-28T00:34:03;3.53;;;2.60;;
8466;SDS011;4270;48.148;11.648;2023-02-28T00:36:28;5.07;;;3.00;;
8466;SDS011;4270;48.148;11.648;2023-02-28T00:38:53;3.77;;;2.90;;
8466;SDS011;4270;48.148;11.648;2023-02-28T00:41:19;5.70;;;3.67;;
8466;SDS011;4270;48.148;11.648;2023-02-28T00:43:44;4.47;;;3.07;;
8466;SDS011;4270;48.148;11.648;2023-02-28T00:46:09;3.77;;;3.10;;
8466;SDS011;4270;48.148;11.648;2023-02-28T00:48:35;5.67;;;3.20;;
8466;SDS011;4270;48.148;11.648;2023-02-28T00:51:00;4.30;;;3.30;;
8466;SDS011;4270;48.148;11.648;2023-02-28T00:53:26;5.90;;;3.10;;
8466;SDS011;4270;48.148;11.648;2023-02-28T00:55:51;5.30;;;3.33;;
8466;SDS011;4270;48.148;11.648;2023-02-28T00:58:16;5.30;;;3.60;;
8466;SDS011;4270;48.148;11.648;2023-02-28T01:00:41;4.63;;;3.10;;
8466;SDS011;4270;48.148;11.648;2023-02-28T01:03:07;4.30;;;3.30;;
8466;SDS011;4270;48.148;11.648;2023-02-28T01:05:32;4.20;;;2.80;;
8466;SDS011;4270;48.148;11.648;2023-02-28T01:07:57;4.37;;;3.20;;
8466;SDS011;4270;48.148;11.648;2023-02-28T01:10:22;6.50;;;2.83;;
8466;SDS011;4270;48.148;11.648;2023-02-28T01:12:48;5.37;;;3.60;;
8466;SDS011;4270;48.148;11.648;2023-02-28T01:15:13;5.20;;;3.13;;
8466;SDS011;4270;48.148;11.648;2023-02-28T01:17:38;4.90;;;3.10;;
8466;SDS011;4270;48.148;11.648;2023-02-28T01:20:03;5.10;;;3.30;;
8466;SDS011;4270;48.148;11.648;2023-02-28T01:22:29;4.80;;;3.07;;
8466;SDS011;4270;48.148;11.648;2023-02-28T01:24:54;6.23;;;3.50;;
8466;SDS011;4270;48.148;11.648;2023-02-28T01:27:19;5.57;;;3.33;;
8466;SDS011;4270;48.148;11.648;2023-02-28T01:29:45;3.73;;;2.83;;
8466;SDS011;4270;48.148;11.648;2023-02-28T01:32:10;6.97;;;3.70;;
8466;SDS011;4270;48.148;11.648;2023-02-28T01:34:35;3.23;;;2.90;;
8466;SDS011;4270;48.148;11.648;2023-02-28T01:37:00;11.00;;;3.20;;
8466;SDS011;4270;48.148;11.648;2023-02-28T01:39:26;3.20;;;2.77;;
8466;SDS011;4270;48.148;11.648;2023-02-28T01:41:51;7.10;;;3.47;;
8466;SDS011;4270;48.148;11.648;2023-02-28T01:47:00;4.57;;;2.90;;
8466;SDS011;4270;48.148;11.648;2023-02-28T01:49:25;3.37;;;2.70;;
8466;SDS011;4270;48.148;11.648;2023-02-28T01:51:52;4.97;;;3.33;;
8466;SDS011;4270;48.148;11.648;2023-02-28T01:54:27;3.73;;;3.40;;
8466;SDS011;4270;48.148;11.648;2023-02-28T01:57:01;3.23;;;2.67;;
8466;SDS011;4270;48.148;11.648;2023-02-28T01:59:33;4.83;;;3.20;;
8466;SDS011;4270;48.148;11.648;2023-02-28T02:02:01;5.10;;;3.50;;
8466;SDS011;4270;48.148;11.648;2023-02-28T02:04:27;4.20;;;2.77;;
8466;SDS011;4270;48.148;11.648;2023-02-28T02:06:57;4.10;;;3.00;;
8466;SDS011;4270;48.148;11.648;2023-02-28T02:09:23;5.27;;;3.53;;
8466;SDS011;4270;48.148;11.648;2023-02-28T02:11:48;6.30;;;3.70;;
8466;SDS011;4270;48.148;11.648;2023-02-28T02:38:31;5.77;;;3.47;;
8466;SDS011;4270;48.148;11.648;2023-02-28T02:43:26;5.43;;;3.30;;
8466;SDS011;4270;48.148;11.648;2023-02-28T02:45:59;4.97;;;3.13;;
8466;SDS011;4270;48.148;11.648;2023-02-28T02:48:29;6.20;;;3.47;;
8466;SDS011;4270;48.148;11.648;2023-02-28T02:50:56;4.47;;;3.03;;
8466;SDS011;4270;48.148;11.648;2023-02-28T02:53:30;7.77;;;3.30;;
8466;SDS011;4270;48.148;11.648;2023-02-28T02:55:57;5.27;;;3.07;;
8466;SDS011;4270;48.148;11.648;2023-02-28T02:58:25;6.17;;;3.30;;
8466;SDS011;4270;48.148;11.648;2023-02-28T03:00:52;3.90;;;3.30;;
8466;SDS011;4270;48.148;11.648;2023-02-28T03:03:18;4.93;;;3.10;;
8466;SDS011;4270;48.148;11.648;2023-02-28T03:05:49;6.87;;;3.60;;
8466;SDS011;4270;48.148;11.648;2023-02-28T03:08:14;4.47;;;3.20;;
8466;SDS011;4270;48.148;11.648;2023-02-28T03:10:42;3.90;;;2.90;;
8466;SDS011;4270;48.148;11.648;2023-02-28T03:15:35;6.10;;;3.43;;
8466;SDS011;4270;48.148;11.648;2023-02-28T03:18:10;5.70;;;3.67;;
8466;SDS011;4270;48.148;11.648;2023-02-28T03:23:29;5.03;;;3.60;;
8466;SDS011;4270;48.148;11.648;2023-02-28T03:26:04;4.47;;;3.37;;
8466;SDS011;4270;48.148;11.648;2023-02-28T03:36:02;7.30;;;3.60;;
8466;SDS011;4270;48.148;11.648;2023-02-28T03:38:36;6.13;;;4.00;;
8466;SDS011;4270;48.148;11.648;2023-02-28T03:41:09;6.33;;;4.07;;
8466;SDS011;4270;48.148;11.648;2023-02-28T03:43:40;7.90;;;4.83;;
8466;SDS011;4270;48.148;11.648;2023-02-28T03:46:09;9.80;;;5.10;;
8466;SDS011;4270;48.148;11.648;2023-02-28T03:48:36;6.13;;;3.90;;
8466;SDS011;4270;48.148;11.648;2023-02-28T03:51:03;8.07;;;5.00;;
8466;SDS011;4270;48.148;11.648;2023-02-28T03:53:32;8.60;;;4.70;;
8466;SDS011;4270;48.148;11.648;2023-02-28T03:56:01;4.50;;;3.30;;
8466;SDS011;4270;48.148;11.648;2023-02-28T04:01:13;9.30;;;4.67;;
8466;SDS011;4270;48.148;11.648;2023-02-28T04:03:40;6.80;;;4.73;;
8466;SDS011;4270;48.148;11.648;2023-02-28T04:06:05;6.87;;;4.70;;
8466;SDS011;4270;48.148;11.648;2023-02-28T04:08:32;7.77;;;3.77;;
8466;SDS011;4270;48.148;11.648;2023-02-28T04:10:59;10.63;;;5.43;;
8466;SDS011;4270;48.148;11.648;2023-02-28T04:13:25;7.20;;;4.10;;
8466;SDS011;4270;48.148;11.648;2023-02-28T04:15:50;6.90;;;4.50;;
8466;SDS011;4270;48.148;11.648;2023-02-28T04:18:15;8.07;;;4.90;;
8466;SDS011;4270;48.148;11.648;2023-02-28T04:20:40;7.30;;;4.77;;
8466;SDS011;4270;48.148;11.648;2023-02-28T04:23:06;12.60;;;6.33;;
8466;SDS011;4270;48.148;11.648;2023-02-28T04:25:31;9.43;;;5.67;;
8466;SDS011;4270;48.148;11.648;2023-02-28T04:27:56;10.07;;;5.47;;
8466;SDS011;4270;48.148;11.648;2023-02-28T04:30:21;8.60;;;4.93;;
8466;SDS011;4270;48.148;11.648;2023-02-28T04:32:47;9.43;;;5.60;;
8466;SDS011;4270;48.148;11.648;2023-02-28T04:35:12;9.37;;;5.33;;
8466;SDS011;4270;48.148;11.648;2023-02-28T04:37:37;8.57;;;5.00;;
8466;SDS011;4270;48.148;11.648;2023-02-28T04:40:03;8.77;;;5.43;;
8466;SDS011;4270;48.148;11.648;2023-02-28T04:42:28;7.10;;;4.43;;
8466;SDS011;4270;48.148;11.648;2023-02-28T04:45:00;9.50;;;5.47;;
8466;SDS011;4270;48.148;11.648;2023-02-28T04:47:25;9.10;;;5.27;;
8466;SDS011;4270;48.148;11.648;2023-02-28T04:49:51;7.77;;;5.33;;
8466;SDS011;4270;48.148;11.648;2023-02-28T04:52:16;12.87;;;6.47;;
8466;SDS011;4270;48.148;11.648;2023-02-28T04:54:41;7.73;;;5.30;;
8466;SDS011;4270;48.148;11.648;2023-02-28T04:57:06;12.50;;;5.80;;
8466;SDS011;4270;48.148;11.648;2023-02-28T04:59:31;8.93;;;5.90;;
8466;SDS011;4270;48.148;11.648;2023-02-28T05:01:57;9.83;;;5.50;;
8466;SDS011;4270;48.148;11.648;2023-02-28T05:04:22;8.97;;;5.40;;
8466;SDS011;4270;48.148;11.648;2023-02-28T05:06:48;12.77;;;6.00;;
8466;SDS011;4270;48.148;11.648;2023-02-28T05:09:13;10.57;;;6.20;;
8466;SDS011;4270;48.148;11.648;2023-02-28T05:11:39;11.43;;;6.80;;
8466;SDS011;4270;48.148;11.648;2023-02-28T05:14:05;11.00;;;6.50;;
8466;SDS011;4270;48.148;11.648;2023-02-28T05:16:30;9.97;;;6.30;;
8466;SDS011;4270;48.148;11.648;2023-02-28T05:18:56;11.93;;;7.00;;
8466;SDS011;4270;48.148;11.648;2023-02-28T05:21:29;11.33;;;7.23;;
8466;SDS011;4270;48.148;11.648;2023-02-28T05:23:55;10.73;;;7.17;;
8466;SDS011;4270;48.148;11.648;2023-02-28T05:26:21;10.13;;;6.57;;
8466;SDS011;4270;48.148;11.648;2023-02-28T05:28:47;13.00;;;7.20;;
8466;SDS011;4270;48.148;11.648;2023-02-28T05:31:12;15.00;;;7.80;;
8466;SDS011;4270;48.148;11.648;2023-02-28T05:33:38;12.20;;;8.40;;
8466;SDS011;4270;48.148;11.648;2023-02-28T05:36:03;11.83;;;7.77;;
8466;SDS011;4270;48.148;11.648;2023-02-28T05:38:29;14.40;;;8.23;;
8466;SDS011;4270;48.148;11.648;2023-02-28T05:40:54;13.43;;;8.03;;
8466;SDS011;4270;48.148;11.648;2023-02-28T05:43:19;12.00;;;6.97;;
8466;SDS011;4270;48.148;11.648;2023-02-28T05:45:44;11.33;;;7.20;;
8466;SDS011;4270;48.148;11.648;2023-02-28T05:48:10;12.00;;;7.93;;
8466;SDS011;4270;48.148;11.648;2023-02-28T05:50:35;15.93;;;8.00;;
8466;SDS011;4270;48.148;11.648;2023-02-28T05:53:00;14.83;;;8.53;;
8466;SDS011;4270;48.148;11.648;2023-02-28T05:55:26;13.07;;;8.80;;
8466;SDS011;4270;48.148;11.648;2023-02-28T05:57:51;19.10;;;9.40;;
8466;SDS011;4270;48.148;11.648;2023-02-28T06:00:16;13.77;;;8.23;;
8466;SDS011;4270;48.148;11.648;2023-02-28T06:02:42;15.43;;;9.00;;
8466;SDS011;4270;48.148;11.648;2023-02-28T06:05:11;12.87;;;8.43;;
8466;SDS011;4270;48.148;11.648;2023-02-28T06:07:37;19.07;;;10.43;;
8466;SDS011;4270;48.148;11.648;2023-02-28T06:10:03;15.50;;;9.80;;
8466;SDS011;4270;48.148;11.648;2023-02-28T06:12:28;14.40;;;9.50;;
8466;SDS011;4270;48.148;11.648;2023-02-28T06:14:53;14.10;;;8.87;;
8466;SDS011;4270;48.148;11.648;2023-02-28T06:17:18;16.73;;;10.63;;
8466;SDS011;4270;48.148;11.648;2023-02-28T06:19:43;13.60;;;9.43;;
8466;SDS011;4270;48.148;11.648;2023-02-28T06:22:09;13.77;;;9.43;;
8466;SDS011;4270;48.148;11.648;2023-02-28T06:24:34;18.00;;;9.60;;
8466;SDS011;4270;48.148;11.648;2023-02-28T06:26:59;19.67;;;9.20;;
8466;SDS011;4270;48.148;11.648;2023-02-28T06:29:30;20.10;;;9.40;;
8466;SDS011;4270;48.148;11.648;2023-02-28T06:31:55;18.67;;;9.23;;
8466;SDS011;4270;48.148;11.648;2023-02-28T06:34:20;15.60;;;9.50;;
8466;SDS011;4270;48.148;11.648;2023-02-28T06:36:45;16.47;;;10.50;;
8466;SDS011;4270;48.148;11.648;2023-02-28T06:39:10;21.63;;;10.47;;
8466;SDS011;4270;48.148;11.648;2023-02-28T06:41:36;18.40;;;9.10;;
8466;SDS011;4270;48.148;11.648;2023-02-28T06:44:11;15.40;;;10.10;;
8466;SDS011;4270;48.148;11.648;2023-02-28T06:46:36;24.80;;;12.80;;
8466;SDS011;4270;48.148;11.648;2023-02-28T06:49:03;18.10;;;9.80;;
8466;SDS011;4270;48.148;11.648;2023-02-28T06:51:28;19.43;;;10.93;;
8466;SDS011;4270;48.148;11.648;2023-02-28T06:53:54;17.53;;;10.40;;
8466;SDS011;4270;48.148;11.648;2023-02-28T06:56:19;16.37;;;10.37;;
8466;SDS011;4270;48.148;11.648;2023-02-28T06:58:48;16.97;;;10.87;;
8466;SDS011;4270;48.148;11.648;2023-02-28T07:01:14;16.70;;;10.30;;
8466;SDS011;4270;48.148;11.648;2023-02-28T07:03:40;18.53;;;10.37;;
8466;SDS011;4270;48.148;11.648;2023-02-28T07:06:05;18.93;;;11.13;;
8466;SDS011;4270;48.148;11.648;2023-02-28T07:08:31;21.90;;;10.87;;
8466;SDS011;4270;48.148;11.648;2023-02-28T07:10:56;19.13;;;10.93;;
8466;SDS011;4270;48.148;11.648;2023-02-28T07:13:22;17.00;;;9.80;;
8466;SDS011;4270;48.148;11.648;2023-02-28T07:15:54;17.70;;;10.87;;
8466;SDS011;4270;48.148;11.648;2023-02-28T07:18:20;17.60;;;10.67;;
8466;SDS011;4270;48.148;11.648;2023-02-28T07:20:45;19.90;;;11.27;;
8466;SDS011;4270;48.148;11.648;2023-02-28T07:23:10;17.93;;;10.30;;
8466;SDS011;4270;48.148;11.648;2023-02-28T07:25:35;20.10;;;11.47;;
8466;SDS011;4270;48.148;11.648;2023-02-28T07:28:00;19.50;;;13.57;;
8466;SDS011;4270;48.148;11.648;2023-02-28T07:30:26;19.70;;;10.70;;
8466;SDS011;4270;48.148;11.648;2023-02-28T07:32:51;18.73;;;11.30;;
8466;SDS011;4270;48.148;11.648;2023-02-28T07:35:16;15.30;;;9.63;;
8466;SDS011;4270;48.148;11.648;2023-02-28T07:37:42;21.37;;;11.40;;
8466;SDS011;4270;48.148;11.648;2023-02-28T07:40:08;20.70;;;10.27;;
8466;SDS011;4270;48.148;11.648;2023-02-28T07:42:34;19.00;;;10.73;;
8466;SDS011;4270;48.148;11.648;2023-02-28T07:45:00;17.10;;;11.07;;
8466;SDS011;4270;48.148;11.648;2023-02-28T07:47:26;20.27;;;12.10;;
8466;SDS011;4270;48.148;11.648;2023-02-28T07:49:51;17.73;;;11.13;;
8466;SDS011;4270;48.148;11.648;2023-02-28T07:52:16;20.60;;;11.03;;
8466;SDS011;4270;48.148;11.648;2023-02-28T07:54:41;19.07;;;10.13;;
8466;SDS011;4270;48.148;11.648;2023-02-28T07:57:07;18.87;;;11.10;;
8466;SDS011;4270;48.148;11.648;2023-02-28T07:59:32;17.40;;;10.40;;
8466;SDS011;4270;48.148;11.648;2023-02-28T08:01:57;19.03;;;11.77;;
8466;SDS011;4270;48.148;11.648;2023-02-28T08:04:23;18.13;;;11.00;;
8466;SDS011;4270;48.148;11.648;2023-02-28T08:06:48;18.40;;;11.53;;
8466;SDS011;4270;48.148;11.648;2023-02-28T08:09:16;20.57;;;12.07;;
8466;SDS011;4270;48.148;11.648;2023-02-28T08:11:42;18.13;;;10.10;;
8466;SDS011;4270;48.148;11.648;2023-02-28T08:14:07;22.23;;;11.80;;
8466;SDS011;4270;48.148;11.648;2023-02-28T08:16:32;17.57;;;10.50;;
8466;SDS011;4270;48.148;11.648;2023-02-28T08:18:57;19.03;;;11.40;;
8466;SDS011;4270;48.148;11.648;2023-02-28T08:21:22;17.23;;;10.77;;
8466;SDS011;4270;48.148;11.648;2023-02-28T08:23:48;16.67;;;10.33;;
8466;SDS011;4270;48.148;11.648;2023-02-28T08:26:14;16.20;;;10.73;;
8466;SDS011;4270;48.148;11.648;2023-02-28T08:28:40;14.70;;;10.23;;
8466;SDS011;4270;48.148;11.648;2023-02-28T08:31:09;17.70;;;11.00;;
8466;SDS011;4270;48.148;11.648;2023-02-28T08:33:34;18.87;;;12.40;;
8466;SDS011;4270;48.148;11.648;2023-02-28T08:35:59;19.37;;;10.60;;
8466;SDS011;4270;48.148;11.648;2023-02-28T08:38:25;20.97;;;12.10;;
8466;SDS011;4270;48.148;11.648;2023-02-28T08:40:50;21.83;;;10.37;;
8466;SDS011;4270;48.148;11.648;2023-02-28T08:43:15;19.10;;;11.30;;
8466;SDS011;4270;48.148;11.648;2023-02-28T08:45:40;19.60;;;11.77;;
8466;SDS011;4270;48.148;11.648;2023-02-28T08:48:05;23.13;;;11.40;;
8466;SDS011;4270;48.148;11.648;2023-02-28T08:50:31;21.30;;;12.80;;
8466;SDS011;4270;48.148;11.648;2023-02-28T08:52:56;19.90;;;12.20;;
8466;SDS011;4270;48.148;11.648;2023-02-28T08:55:21;22.53;;;12.30;;
8466;SDS011;4270;48.148;11.648;2023-02-28T08:57:46;19.10;;;12.20;;
8466;SDS011;4270;48.148;11.648;2023-02-28T09:00:12;18.90;;;10.70;;
8466;SDS011;4270;48.148;11.648;2023-02-28T09:02:39;19.07;;;11.03;;
8466;SDS011;4270;48.148;11.648;2023-02-28T09:05:04;17.37;;;10.13;;
8466;SDS011;4270;48.148;11.648;2023-02-28T09:07:30;17.97;;;11.77;;
8466;SDS011;4270;48.148;11.648;2023-02-28T09:09:55;18.27;;;11.50;;
8466;SDS011;4270;48.148;11.648;2023-02-28T09:12:23;18.50;;;12.50;;
8466;SDS011;4270;48.148;11.648;2023-02-28T09:14:49;18.33;;;11.83;;
8466;SDS011;4270;48.148;11.648;2023-02-28T09:17:14;18.10;;;12.20;;
8466;SDS011;4270;48.148;11.648;2023-02-28T09:19:40;18.90;;;11.83;;
8466;SDS011;4270;48.148;11.648;2023-02-28T09:22:05;19.47;;;12.70;;
8466;SDS011;4270;48.148;11.648;2023-02-28T09:24:30;14.40;;;10.27;;
8466;SDS011;4270;48.148;11.648;2023-02-28T09:26:56;20.80;;;12.87;;
8466;SDS011;4270;48.148;11.648;2023-02-28T09:29:21;20.83;;;11.40;;
8466;SDS011;4270;48.148;11.648;2023-02-28T09:31:47;19.60;;;12.37;;
8466;SDS011;4270;48.148;11.648;2023-02-28T09:34:12;19.33;;;10.80;;
8466;SDS011;4270;48.148;11.648;2023-02-28T09:36:37;18.60;;;12.30;;
8466;SDS011;4270;48.148;11.648;2023-02-28T09:39:02;20.23;;;12.30;;
8466;SDS011;4270;48.148;11.648;2023-02-28T09:41:28;17.87;;;11.57;;
8466;SDS011;4270;48.148;11.648;2023-02-28T09:43:57;19.13;;;11.67;;
8466;SDS011;4270;48.148;11.648;2023-02-28T09:48:49;18.97;;;12.00;;
8466;SDS011;4270;48.148;11.648;2023-02-28T09:53:52;17.30;;;11.10;;
8466;SDS011;4270;48.148;11.648;2023-02-28T09:56:22;15.73;;;10.73;;
8466;SDS011;4270;48.148;11.648;2023-02-28T09:58:56;16.63;;;11.00;;
8466;SDS011;4270;48.148;11.648;2023-02-28T10:06:46;18.03;;;11.30;;
8466;SDS011;4270;48.148;11.648;2023-02-28T10:09:15;16.97;;;12.47;;
8466;SDS011;4270;48.148;11.648;2023-02-28T10:11:42;17.73;;;10.30;;
8466;SDS011;4270;48.148;11.648;2023-02-28T10:14:15;20.53;;;11.90;;
8466;SDS011;4270;48.148;11.648;2023-02-28T10:19:21;19.63;;;11.53;;
8466;SDS011;4270;48.148;11.648;2023-02-28T10:27:16;16.43;;;10.87;;
8466;SDS011;4270;48.148;11.648;2023-02-28T10:29:45;17.67;;;12.33;;
8466;SDS011;4270;48.148;11.648;2023-02-28T10:32:11;20.30;;;12.13;;
8466;SDS011;4270;48.148;11.648;2023-02-28T10:34:38;14.07;;;11.40;;
8466;SDS011;4270;48.148;11.648;2023-02-28T10:37:03;21.07;;;13.23;;
8466;SDS011;4270;48.148;11.648;2023-02-28T10:42:01;18.80;;;12.17;;
8466;SDS011;4270;48.148;11.648;2023-02-28T10:44:26;14.73;;;11.30;;
8466;SDS011;4270;48.148;11.648;2023-02-28T10:46:52;13.60;;;10.13;;
8466;SDS011;4270;48.148;11.648;2023-02-28T10:49:20;17.60;;;12.37;;
8466;SDS011;4270;48.148;11.648;2023-02-28T10:51:45;17.20;;;11.57;;
8466;SDS011;4270;48.148;11.648;2023-02-28T10:54:18;18.47;;;10.70;;
8466;SDS011;4270;48.148;11.648;2023-02-28T10:56:43;19.67;;;11.93;;
8466;SDS011;4270;48.148;11.648;2023-02-28T11:01:44;13.80;;;10.53;;
8466;SDS011;4270;48.148;11.648;2023-02-28T11:04:17;20.40;;;12.00;;
8466;SDS011;4270;48.148;11.648;2023-02-28T11:06:44;23.80;;;13.10;;
8466;SDS011;4270;48.148;11.648;2023-02-28T11:09:22;20.73;;;11.60;;
8466;SDS011;4270;48.148;11.648;2023-02-28T11:11:48;16.60;;;11.13;;
8466;SDS011;4270;48.148;11.648;2023-02-28T11:14:30;16.63;;;11.73;;
8466;SDS011;4270;48.148;11.648;2023-02-28T11:16:57;17.00;;;11.10;;
8466;SDS011;4270;48.148;11.648;2023-02-28T11:19:25;20.90;;;12.57;;
8466;SDS011;4270;48.148;11.648;2023-02-28T11:21:56;23.27;;;14.17;;
8466;SDS011;4270;48.148;11.648;2023-02-28T11:24:23;14.60;;;10.50;;
8466;SDS011;4270;48.148;11.648;2023-02-28T11:26:49;14.53;;;11.10;;
8466;SDS011;4270;48.148;11.648;2023-02-28T11:29:25;19.07;;;11.40;;
8466;SDS011;4270;48.148;11.648;2023-02-28T11:32:02;17.90;;;10.53;;
8466;SDS011;4270;48.148;11.648;2023-02-28T11:34:27;17.83;;;12.23;;
8466;SDS011;4270;48.148;11.648;2023-02-28T11:36:54;16.50;;;10.37;;
8466;SDS011;4270;48.148;11.648;2023-02-28T11:39:19;15.90;;;10.87;;
8466;SDS011;4270;48.148;11.648;2023-02-28T11:46:44;16.70;;;11.43;;
8466;SDS011;4270;48.148;11.648;2023-02-28T11:54:23;16.37;;;10.53;;
8466;SDS011;4270;48.148;11.648;2023-02-28T11:56:54;22.63;;;12.90;;
8466;SDS011;4270;48.148;11.648;2023-02-28T12:27:55;15.23;;;10.60;;
8466;SDS011;4270;48.148;11.648;2023-02-28T12:30:30;16.90;;;10.33;;
8466;SDS011;4270;48.148;11.648;2023-02-28T12:35:25;13.60;;;10.47;;
8466;SDS011;4270;48.148;11.648;2023-02-28T12:38:01;17.00;;;10.30;;
8466;SDS011;4270;48.148;11.648;2023-02-28T12:40:28;13.17;;;9.50;;
8466;SDS011;4270;48.148;11.648;2023-02-28T12:42:59;15.33;;;11.03;;
8466;SDS011;4270;48.148;11.648;2023-02-28T12:45:27;17.97;;;10.07;;
8466;SDS011;4270;48.148;11.648;2023-02-28T12:47:57;18.60;;;10.97;;
8466;SDS011;4270;48.148;11.648;2023-02-28T12:50:25;15.10;;;9.90;;
8466;SDS011;4270;48.148;11.648;2023-02-28T12:55:19;12.77;;;9.30;;
8466;SDS011;4270;48.148;11.648;2023-02-28T13:00:15;23.77;;;15.83;;
8466;SDS011;4270;48.148;11.648;2023-02-28T13:03:06;15.27;;;10.43;;
8466;SDS011;4270;48.148;11.648;2023-02-28T13:13:04;15.60;;;9.70;;
8466;SDS011;4270;48.148;11.648;2023-02-28T13:15:29;14.47;;;9.20;;
8466;SDS011;4270;48.148;11.648;2023-02-28T13:17:55;14.53;;;11.60;;
8466;SDS011;4270;48.148;11.648;2023-02-28T13:20:47;15.60;;;9.10;;
8466;SDS011;4270;48.148;11.648;2023-02-28T13:23:14;15.33;;;9.67;;
8466;SDS011;4270;48.148;11.648;2023-02-28T13:25:52;12.43;;;9.60;;
8466;SDS011;4270;48.148;11.648;2023-02-28T13:28:56;13.80;;;9.77;;
8466;SDS011;4270;48.148;11.648;2023-02-28T13:31:04;15.80;;;10.67;;
8466;SDS011;4270;48.148;11.648;2023-02-28T13:33:36;11.97;;;8.80;;
8466;SDS011;4270;48.148;11.648;2023-02-28T13:38:42;12.80;;;9.33;;
8466;SDS011;4270;48.148;11.648;2023-02-28T13:46:32;20.30;;;9.77;;
8466;SDS011;4270;48.148;11.648;2023-02-28T13:51:44;13.13;;;9.23;;
8466;SDS011;4270;48.148;11.648;2023-02-28T13:54:16;14.97;;;10.13;;
8466;SDS011;4270;48.148;11.648;2023-02-28T13:56:45;17.30;;;9.63;;
8466;SDS011;4270;48.148;11.648;2023-02-28T13:59:23;16.30;;;10.60;;
8466;SDS011;4270;48.148;11.648;2023-02-28T14:01:53;20.80;;;13.20;;
8466;SDS011;4270;48.148;11.648;2023-02-28T14:07:03;15.47;;;9.50;;
8466;SDS011;4270;48.148;11.648;2023-02-28T14:09:33;14.57;;;9.90;;
8466;SDS011;4270;48.148;11.648;2023-02-28T14:17:14;15.33;;;9.20;;
8466;SDS011;4270;48.148;11.648;2023-02-28T14:19:40;14.37;;;9.77;;
8466;SDS011;4270;48.148;11.648;2023-02-28T14:27:19;14.57;;;9.40;;
8466;SDS011;4270;48.148;11.648;2023-02-28T14:34:59;15.27;;;9.63;;
8466;SDS011;4270;48.148;11.648;2023-02-28T14:37:32;13.67;;;10.70;;
8466;SDS011;4270;48.148;11.648;2023-02-28T14:39:58;20.13;;;10.10;;
8466;SDS011;4270;48.148;11.648;2023-02-28T14:44:56;14.00;;;10.57;;
8466;SDS011;4270;48.148;11.648;2023-02-28T14:47:27;12.60;;;9.37;;
8466;SDS011;4270;48.148;11.648;2023-02-28T14:49:52;12.93;;;8.77;;
8466;SDS011;4270;48.148;11.648;2023-02-28T14:52:20;15.20;;;10.40;;
8466;SDS011;4270;48.148;11.648;2023-02-28T14:54:45;13.17;;;9.63;;
8466;SDS011;4270;48.148;11.648;2023-02-28T14:59:56;20.63;;;10.17;;
8466;SDS011;4270;48.148;11.648;2023-02-28T15:02:22;11.23;;;8.30;;
8466;SDS011;4270;48.148;11.648;2023-02-28T15:04:52;16.00;;;9.70;;
8466;SDS011;4270;48.148;11.648;2023-02-28T15:07:18;13.13;;;9.03;;
8466;SDS011;4270;48.148;11.648;2023-02-28T15:09:43;12.00;;;8.23;;
8466;SDS011;4270;48.148;11.648;2023-02-28T15:12:11;15.50;;;10.90;;
8466;SDS011;4270;48.148;11.648;2023-02-28T15:14:38;16.50;;;8.67;;
8466;SDS011;4270;48.148;11.648;2023-02-28T15:17:08;14.43;;;9.10;;
8466;SDS011;4270;48.148;11.648;2023-02-28T15:19:37;13.60;;;8.50;;
8466;SDS011;4270;48.148;11.648;2023-02-28T15:22:05;13.70;;;9.57;;
8466;SDS011;4270;48.148;11.648;2023-02-28T15:26:58;15.30;;;9.40;;
8466;SDS011;4270;48.148;11.648;2023-02-28T15:29:24;13.17;;;9.27;;
8466;SDS011;4270;48.148;11.648;2023-02-28T15:36:49;24.20;;;9.70;;
8466;SDS011;4270;48.148;11.648;2023-02-28T15:39:22;16.20;;;9.10;;
8466;SDS011;4270;48.148;11.648;2023-02-28T15:41:48;13.47;;;9.03;;
8466;SDS011;4270;48.148;11.648;2023-02-28T15:44:34;14.73;;;8.90;;
8466;SDS011;4270;48.148;11.648;2023-02-28T15:47:06;12.23;;;8.33;;
8466;SDS011;4270;48.148;11.648;2023-02-28T15:49:53;13.13;;;8.43;;
8466;SDS011;4270;48.148;11.648;2023-02-28T15:52:26;17.50;;;9.13;;
8466;SDS011;4270;48.148;11.648;2023-02-28T15:54:52;17.30;;;9.63;;
8466;SDS011;4270;48.148;11.648;2023-02-28T15:57:21;21.57;;;10.30;;
8466;SDS011;4270;48.148;11.648;2023-02-28T15:59:57;17.43;;;10.80;;
8466;SDS011;4270;48.148;11.648;2023-02-28T16:02:35;17.83;;;11.07;;
8466;SDS011;4270;48.148;11.648;2023-02-28T16:07:32;14.80;;;9.70;;
8466;SDS011;4270;48.148;11.648;2023-02-28T16:09:58;16.07;;;10.33;;
8466;SDS011;4270;48.148;11.648;2023-02-28T16:12:27;17.00;;;10.03;;
8466;SDS011;4270;48.148;11.648;2023-02-28T16:14:54;16.50;;;10.50;;
8466;SDS011;4270;48.148;11.648;2023-02-28T16:17:20;14.23;;;10.13;;
8466;SDS011;4270;48.148;11.648;2023-02-28T16:19:46;19.03;;;10.23;;
8466;SDS011;4270;48.148;11.648;2023-02-28T16:22:12;16.53;;;10.27;;
8466;SDS011;4270;48.148;11.648;2023-02-28T16:24:37;15.83;;;9.30;;
8466;SDS011;4270;48.148;11.648;2023-02-28T16:27:03;15.50;;;10.33;;
8466;SDS011;4270;48.148;11.648;2023-02-28T16:29:30;19.30;;;10.40;;
8466;SDS011;4270;48.148;11.648;2023-02-28T16:31:55;19.40;;;12.30;;
8466;SDS011;4270;48.148;11.648;2023-02-28T16:34:21;14.63;;;10.37;;
8466;SDS011;4270;48.148;11.648;2023-02-28T16:36:47;14.93;;;9.87;;
8466;SDS011;4270;48.148;11.648;2023-02-28T16:39:12;20.37;;;11.40;;
8466;SDS011;4270;48.148;11.648;2023-02-28T16:41:37;18.00;;;10.50;;
8466;SDS011;4270;48.148;11.648;2023-02-28T16:44:07;20.10;;;11.10;;
8466;SDS011;4270;48.148;11.648;2023-02-28T16:46:35;17.77;;;11.10;;
8466;SDS011;4270;48.148;11.648;2023-02-28T16:49:00;17.80;;;10.70;;
8466;SDS011;4270;48.148;11.648;2023-02-28T16:51:26;16.40;;;9.93;;
8466;SDS011;4270;48.148;11.648;2023-02-28T16:53:51;16.70;;;10.17;;
8466;SDS011;4270;48.148;11.648;2023-02-28T16:56:23;16.67;;;10.10;;
8466;SDS011;4270;48.148;11.648;2023-02-28T16:58:49;17.33;;;11.03;;
8466;SDS011;4270;48.148;11.648;2023-02-28T17:01:15;16.97;;;11.20;;
8466;SDS011;4270;48.148;11.648;2023-02-28T17:03:41;13.83;;;9.83;;
8466;SDS011;4270;48.148;11.648;2023-02-28T17:06:13;17.70;;;11.23;;
8466;SDS011;4270;48.148;11.648;2023-02-28T17:08:40;19.40;;;10.80;;
8466;SDS011;4270;48.148;11.648;2023-02-28T17:11:06;17.87;;;11.03;;
8466;SDS011;4270;48.148;11.648;2023-02-28T17:13:31;17.80;;;11.47;;
8466;SDS011;4270;48.148;11.648;2023-02-28T17:15:59;19.20;;;11.17;;
8466;SDS011;4270;48.148;11.648;2023-02-28T17:18:24;24.73;;;12.70;;
8466;SDS011;4270;48.148;11.648;2023-02-28T17:20:54;18.57;;;12.10;;
8466;SDS011;4270;48.148;11.648;2023-02-28T17:23:20;21.13;;;12.87;;
8466;SDS011;4270;48.148;11.648;2023-02-28T17:25:45;18.40;;;12.30;;
8466;SDS011;4270;48.148;11.648;2023-02-28T17:28:18;18.77;;;11.80;;
8466;SDS011;4270;48.148;11.648;2023-02-28T17:30:43;17.17;;;11.30;;